createdAt,value
2023-05-11T00:02:23.260Z,4.50
2023-05-11T00:04:49.885Z,4.00
2023-05-11T00:07:16.495Z,3.60
2023-05-11T00:09:43.031Z,4.10
2023-05-11T00:12:09.539Z,4.50
2023-05-11T00:14:36.155Z,4.10
2023-05-11T00:17:02.718Z,3.90
2023-05-11T00:19:31.509Z,4.50
2023-05-11T00:21:59.039Z,3.80
2023-05-11T00:24:26.390Z,4.30
2023-05-11T00:26:52.942Z,4.00
2023-05-11T00:29:20.020Z,4.10
2023-05-11T00:31:48.184Z,3.90
2023-05-11T00:34:15.931Z,3.80
2023-05-11T00:36:43.148Z,3.90
2023-05-11T00:39:10.463Z,4.30
2023-05-11T00:41:37.010Z,4.00
2023-05-11T00:44:03.682Z,4.40
2023-05-11T00:46:31.261Z,4.20
2023-05-11T00:48:58.433Z,4.50
2023-05-11T00:51:24.988Z,3.70
2023-05-11T00:53:52.120Z,3.90
2023-05-11T00:56:20.065Z,4.00
2023-05-11T00:58:46.742Z,4.00
2023-05-11T01:01:14.883Z,4.50
2023-05-11T01:03:41.599Z,3.80
2023-05-11T01:06:44.635Z,3.80
2023-05-11T01:09:56.521Z,4.00
2023-05-11T01:12:55.953Z,3.80
2023-05-11T01:15:48.147Z,3.80
2023-05-11T01:18:33.644Z,4.00
2023-05-11T01:21:05.784Z,4.20
2023-05-11T01:23:51.104Z,4.40
2023-05-11T01:26:33.354Z,4.30
2023-05-11T01:29:38.066Z,4.00
2023-05-11T01:32:10.308Z,3.60
2023-05-11T01:34:40.518Z,3.90
2023-05-11T01:37:13.715Z,4.90
2023-05-11T01:39:50.772Z,4.20
2023-05-11T01:42:22.738Z,4.20
2023-05-11T01:44:53.480Z,5.00
2023-05-11T01:47:23.409Z,4.20
2023-05-11T01:49:51.679Z,4.50
2023-05-11T01:52:23.638Z,4.60
2023-05-11T01:54:52.955Z,4.70
2023-05-11T01:57:21.340Z,4.30
2023-05-11T01:59:50.264Z,4.20
2023-05-11T02:02:18.695Z,4.50
2023-05-11T02:04:46.893Z,4.70
2023-05-11T02:07:14.938Z,4.70
2023-05-11T02:09:43.066Z,4.40
2023-05-11T02:12:11.784Z,4.40
2023-05-11T02:14:39.600Z,4.20
2023-05-11T02:17:15.639Z,4.70
2023-05-11T02:19:44.279Z,5.20
2023-05-11T02:22:12.617Z,4.30
2023-05-11T02:24:40.074Z,4.10
2023-05-11T02:27:07.541Z,4.80
2023-05-11T02:29:34.489Z,3.70
2023-05-11T02:32:12.478Z,3.70
2023-05-11T02:34:41.993Z,3.70
2023-05-11T02:37:20.792Z,4.30
2023-05-11T02:39:52.835Z,4.00
2023-05-11T02:42:21.890Z,4.20
2023-05-11T02:45:03.721Z,5.00
2023-05-11T02:47:36.558Z,5.70
2023-05-11T02:50:08.752Z,5.50
2023-05-11T02:52:41.558Z,4.80
2023-05-11T02:55:09.386Z,4.30
2023-05-11T02:57:35.937Z,4.70
2023-05-11T03:00:05.456Z,4.90
2023-05-11T03:02:32.090Z,4.40
2023-05-11T03:04:58.808Z,4.10
2023-05-11T03:07:25.816Z,5.80
2023-05-11T03:09:52.889Z,5.90
2023-05-11T03:12:21.152Z,4.90
2023-05-11T03:14:48.486Z,5.80
2023-05-11T03:17:16.733Z,5.50
2023-05-11T03:19:43.689Z,4.90
2023-05-11T03:22:11.055Z,4.60
2023-05-11T03:24:38.495Z,4.80
2023-05-11T03:27:07.831Z,4.40
2023-05-11T03:29:38.353Z,4.10
2023-05-11T03:32:05.490Z,4.30
2023-05-11T03:34:33.949Z,4.10
2023-05-11T03:37:01.116Z,4.60
2023-05-11T03:39:31.183Z,4.40
2023-05-11T03:42:00.175Z,3.90
2023-05-11T03:44:28.841Z,4.20
2023-05-11T03:46:57.734Z,4.30
2023-05-11T03:49:25.527Z,4.30
2023-05-11T03:51:53.219Z,5.40
2023-05-11T03:54:20.607Z,4.40
2023-05-11T03:56:47.206Z,4.30
2023-05-11T03:59:17.342Z,4.30
2023-05-11T04:01:44.253Z,4.70
2023-05-11T04:04:11.988Z,6.10
2023-05-11T04:06:38.679Z,6.20
2023-05-11T04:09:16.922Z,5.30
2023-05-11T04:11:43.480Z,4.80
2023-05-11T04:14:09.978Z,4.90
2023-05-11T04:16:36.648Z,4.40
2023-05-11T04:19:03.253Z,5.20
2023-05-11T04:21:29.862Z,4.80
2023-05-11T04:23:56.621Z,4.30
2023-05-11T04:26:24.222Z,4.50
2023-05-11T04:28:50.768Z,4.60
2023-05-11T04:31:17.285Z,4.50
2023-05-11T04:33:43.873Z,4.50
2023-05-11T04:36:11.114Z,4.30
2023-05-11T04:38:38.334Z,4.80
2023-05-11T04:41:08.923Z,4.50
2023-05-11T04:43:36.399Z,4.90
2023-05-11T04:46:02.944Z,4.30
2023-05-11T04:48:30.138Z,4.20
2023-05-11T04:50:58.031Z,4.50
2023-05-11T04:53:28.612Z,4.50
2023-05-11T04:55:55.331Z,4.40
2023-05-11T04:58:21.941Z,3.90
2023-05-11T05:00:49.054Z,4.80
2023-05-11T05:03:15.695Z,5.00
2023-05-11T05:05:42.394Z,4.80
2023-05-11T05:08:09.925Z,5.70
2023-05-11T05:10:36.523Z,5.60
2023-05-11T05:13:03.086Z,5.50
2023-05-11T05:15:30.763Z,10.80
2023-05-11T05:17:58.056Z,6.90
2023-05-11T05:20:24.890Z,4.20
2023-05-11T05:22:51.869Z,4.10
2023-05-11T05:25:18.882Z,3.50
2023-05-11T05:27:45.887Z,3.30
2023-05-11T05:30:17.557Z,4.10
2023-05-11T05:32:44.341Z,3.70
2023-05-11T05:35:10.912Z,3.60
2023-05-11T05:37:37.850Z,3.80
2023-05-11T05:40:05.529Z,3.80
2023-05-11T05:42:33.916Z,3.20
2023-05-11T05:45:00.539Z,3.70
2023-05-11T05:47:27.150Z,3.60
2023-05-11T05:49:53.683Z,3.10
2023-05-11T05:52:20.309Z,3.10
2023-05-11T05:54:47.699Z,3.50
2023-05-11T05:57:15.811Z,3.00
2023-05-11T05:59:43.459Z,3.10
2023-05-11T06:02:11.644Z,3.30
2023-05-11T06:04:38.272Z,2.90
2023-05-11T06:07:04.864Z,2.80
2023-05-11T06:09:31.534Z,3.10
2023-05-11T06:11:58.133Z,3.10
2023-05-11T06:14:25.331Z,3.60
2023-05-11T06:16:53.501Z,3.00
2023-05-11T06:19:21.152Z,3.00
2023-05-11T06:21:48.530Z,2.90
2023-05-11T06:24:15.358Z,2.80
2023-05-11T06:26:43.092Z,2.60
2023-05-11T06:29:10.085Z,2.70
2023-05-11T06:31:37.003Z,3.20
2023-05-11T06:34:04.482Z,2.70
2023-05-11T06:36:32.254Z,2.60
2023-05-11T06:38:59.321Z,2.80
2023-05-11T06:41:26.757Z,3.20
2023-05-11T06:43:53.277Z,3.10
2023-05-11T06:46:27.568Z,2.50
2023-05-11T06:48:54.304Z,2.50
2023-05-11T06:51:21.961Z,2.70
2023-05-11T06:53:48.819Z,2.70
2023-05-11T06:56:15.893Z,2.40
2023-05-11T06:58:43.093Z,2.30
2023-05-11T07:01:11.418Z,2.50
2023-05-11T07:03:38.159Z,2.20
2023-05-11T07:06:05.108Z,2.00
2023-05-11T07:08:31.841Z,1.90
2023-05-11T07:10:58.420Z,2.40
2023-05-11T07:13:25.152Z,1.70
2023-05-11T07:15:52.003Z,2.10
2023-05-11T07:18:18.632Z,2.00
2023-05-11T07:20:49.948Z,2.30
2023-05-11T07:23:17.134Z,1.80
2023-05-11T07:25:43.892Z,1.80
2023-05-11T07:28:10.595Z,2.30
2023-05-11T07:30:38.476Z,1.50
2023-05-11T07:33:06.724Z,1.90
2023-05-11T07:35:33.784Z,1.80
2023-05-11T07:38:00.853Z,1.60
2023-05-11T07:40:28.721Z,1.90
2023-05-11T07:42:58.680Z,1.70
2023-05-11T07:45:26.473Z,2.00
2023-05-11T07:47:53.743Z,1.40
2023-05-11T07:50:24.463Z,1.70
2023-05-11T07:52:51.834Z,1.60
2023-05-11T07:55:20.652Z,1.80
2023-05-11T07:57:48.435Z,1.70
2023-05-11T08:00:15.670Z,1.80
2023-05-11T08:02:42.923Z,1.60
2023-05-11T08:05:09.863Z,1.90
2023-05-11T08:07:37.877Z,1.50
2023-05-11T08:10:06.970Z,1.70
2023-05-11T08:12:33.777Z,2.30
2023-05-11T08:15:00.342Z,1.90
2023-05-11T08:17:27.477Z,1.40
2023-05-11T08:19:54.408Z,1.50
2023-05-11T08:22:22.528Z,1.60
2023-05-11T08:24:50.874Z,1.90
2023-05-11T08:27:17.970Z,1.60
2023-05-11T08:29:45.178Z,1.80
2023-05-11T08:32:11.797Z,1.50
2023-05-11T08:34:38.702Z,1.40
2023-05-11T08:37:05.556Z,1.50
2023-05-11T08:39:46.590Z,1.90
2023-05-11T08:42:16.642Z,1.50
2023-05-11T08:44:44.672Z,1.60
2023-05-11T08:47:22.868Z,2.00
2023-05-11T08:49:51.785Z,1.80
2023-05-11T08:52:18.826Z,1.50
2023-05-11T08:54:46.382Z,1.80
2023-05-11T08:57:14.822Z,1.70
2023-05-11T08:59:44.540Z,1.70
2023-05-11T09:02:16.706Z,1.40
2023-05-11T09:04:46.866Z,1.60
2023-05-11T09:07:22.342Z,1.70
2023-05-11T09:09:49.030Z,1.70
2023-05-11T09:12:17.025Z,1.80
2023-05-11T09:14:44.542Z,2.10
2023-05-11T09:17:11.766Z,1.80
2023-05-11T09:19:57.717Z,1.50
2023-05-11T09:22:24.525Z,1.50
2023-05-11T09:24:51.413Z,1.70
2023-05-11T09:27:21.318Z,1.60
2023-05-11T09:29:51.835Z,1.70
2023-05-11T09:32:18.892Z,1.50
2023-05-11T09:34:45.916Z,2.00
2023-05-11T09:37:18.387Z,1.90
2023-05-11T09:40:13.995Z,1.30
2023-05-11T09:42:31.868Z,2.00
2023-05-11T09:44:58.622Z,1.60
2023-05-11T09:47:25.350Z,1.70
2023-05-11T09:49:52.044Z,1.70
2023-05-11T09:52:21.049Z,1.80
2023-05-11T09:54:51.151Z,1.40
2023-05-11T09:57:27.231Z,1.60
2023-05-11T09:59:56.554Z,1.80
2023-05-11T10:02:25.268Z,1.60
2023-05-11T10:04:54.853Z,1.60
2023-05-11T10:09:53.837Z,1.30
2023-05-11T10:14:52.014Z,1.70
2023-05-11T10:17:20.779Z,1.80
2023-05-11T10:19:48.997Z,1.80
2023-05-11T10:22:17.653Z,1.40
2023-05-11T10:24:44.576Z,1.30
2023-05-11T10:27:12.966Z,1.80
2023-05-11T10:29:40.020Z,1.50
2023-05-11T10:32:07.954Z,1.70
2023-05-11T10:34:34.708Z,1.80
2023-05-11T10:37:02.550Z,1.40
2023-05-11T10:39:30.504Z,1.80
2023-05-11T10:42:36.302Z,1.50
2023-05-11T10:45:36.006Z,1.60
2023-05-11T10:48:30.241Z,1.60
2023-05-11T10:51:17.333Z,1.40
2023-05-11T10:54:09.979Z,1.50
2023-05-11T10:56:54.845Z,1.60
2023-05-11T10:59:24.423Z,1.80
2023-05-11T11:04:20.556Z,1.90
2023-05-11T11:06:47.246Z,1.80
2023-05-11T11:09:16.236Z,1.60
2023-05-11T11:11:50.996Z,1.50
2023-05-11T11:14:19.628Z,1.60
2023-05-11T11:17:25.432Z,1.70
2023-05-11T11:19:52.257Z,1.60
2023-05-11T11:22:41.716Z,1.60
2023-05-11T11:25:09.691Z,1.50
2023-05-11T11:27:45.364Z,1.20
2023-05-11T11:30:25.491Z,1.70
2023-05-11T11:32:54.147Z,1.40
2023-05-11T11:35:39.296Z,1.50
2023-05-11T11:38:14.346Z,1.70
2023-05-11T11:40:51.157Z,1.50
2023-05-11T11:43:21.202Z,1.90
2023-05-11T11:46:03.192Z,1.30
2023-05-11T11:48:41.427Z,1.50
2023-05-11T11:51:13.178Z,1.60
2023-05-11T11:53:41.230Z,1.70
2023-05-11T11:56:13.963Z,1.30
2023-05-11T11:58:44.153Z,1.30
2023-05-11T12:01:14.760Z,1.70
2023-05-11T12:03:43.994Z,1.60
2023-05-11T12:06:12.062Z,1.50
2023-05-11T12:08:40.500Z,1.20
2023-05-11T12:11:08.001Z,1.80
2023-05-11T12:13:35.571Z,1.50
2023-05-11T12:16:14.498Z,1.60
2023-05-11T12:18:42.967Z,1.60
2023-05-11T12:21:23.592Z,1.00
2023-05-11T12:23:54.878Z,1.30
2023-05-11T12:26:23.521Z,1.80
2023-05-11T12:29:08.425Z,1.30
2023-05-11T12:31:39.524Z,1.80
2023-05-11T12:34:06.361Z,1.60
2023-05-11T12:36:34.456Z,1.40
2023-05-11T12:39:01.170Z,1.80
2023-05-11T12:41:28.070Z,1.50
2023-05-11T12:43:56.170Z,1.30
2023-05-11T12:46:23.582Z,1.30
2023-05-11T12:48:51.537Z,1.50
2023-05-11T12:51:42.110Z,1.40
2023-05-11T12:54:08.878Z,1.50
2023-05-11T12:56:48.798Z,1.70
2023-05-11T12:59:35.545Z,1.80
2023-05-11T13:02:16.005Z,2.00
2023-05-11T13:04:44.019Z,1.90
2023-05-11T13:07:11.756Z,1.60
2023-05-11T13:09:39.516Z,1.50
2023-05-11T13:12:20.852Z,2.10
2023-05-11T13:15:04.497Z,1.50
2023-05-11T13:17:32.596Z,1.40
2023-05-11T13:20:22.109Z,1.50
2023-05-11T13:22:49.762Z,1.80
2023-05-11T13:25:19.571Z,1.60
2023-05-11T13:27:46.518Z,2.10
2023-05-11T13:30:13.717Z,1.80
2023-05-11T13:32:40.458Z,1.60
2023-05-11T13:35:07.292Z,1.90
2023-05-11T13:37:33.878Z,1.40
2023-05-11T13:40:00.887Z,1.90
2023-05-11T13:42:28.500Z,2.20
2023-05-11T13:44:55.308Z,1.70
2023-05-11T13:47:22.194Z,1.70
2023-05-11T13:49:48.949Z,1.50
2023-05-11T13:52:15.922Z,1.90
2023-05-11T13:54:42.512Z,2.00
2023-05-11T13:57:09.203Z,1.90
2023-05-11T13:59:35.904Z,1.50
2023-05-11T14:02:02.607Z,1.70
2023-05-11T14:04:29.394Z,1.70
2023-05-11T14:06:56.102Z,1.90
2023-05-11T14:09:23.427Z,1.60
2023-05-11T14:11:50.664Z,1.70
2023-05-11T14:14:17.558Z,1.80
2023-05-11T14:16:44.249Z,1.90
2023-05-11T14:19:10.839Z,2.10
2023-05-11T14:21:37.886Z,2.00
2023-05-11T14:24:12.263Z,1.70
2023-05-11T14:26:40.233Z,1.80
2023-05-11T14:29:07.001Z,1.80
2023-05-11T14:31:34.907Z,1.80
2023-05-11T14:34:02.865Z,1.40
2023-05-11T14:36:29.886Z,1.50
2023-05-11T14:38:56.646Z,1.80
2023-05-11T14:41:23.544Z,1.80
2023-05-11T14:43:50.428Z,1.60
2023-05-11T14:46:17.810Z,1.90
2023-05-11T14:48:44.549Z,1.70
2023-05-11T14:51:11.200Z,1.50
2023-05-11T14:53:37.781Z,1.90
2023-05-11T14:56:04.605Z,1.90
2023-05-11T14:58:31.171Z,2.00
2023-05-11T15:00:57.892Z,1.80
2023-05-11T15:03:25.196Z,1.90
2023-05-11T15:05:52.054Z,2.00
2023-05-11T15:08:29.085Z,1.60
2023-05-11T15:10:57.549Z,1.90
2023-05-11T15:13:24.650Z,1.90
2023-05-11T15:15:51.778Z,2.00
2023-05-11T15:18:18.969Z,2.40
2023-05-11T15:20:46.162Z,1.70
2023-05-11T15:23:16.583Z,2.20
2023-05-11T15:25:44.700Z,1.80
2023-05-11T15:28:11.766Z,1.80
2023-05-11T15:30:38.701Z,2.40
2023-05-11T15:33:05.473Z,1.80
2023-05-11T15:35:34.655Z,1.90
2023-05-11T15:38:01.324Z,2.00
2023-05-11T15:40:31.047Z,1.90
2023-05-11T15:42:58.875Z,1.90
2023-05-11T15:45:26.358Z,2.00
2023-05-11T15:47:54.121Z,2.10
2023-05-11T15:50:21.139Z,2.00
2023-05-11T15:52:48.040Z,1.80
2023-05-11T15:55:14.839Z,1.90
2023-05-11T15:57:41.673Z,2.00
2023-05-11T16:00:10.617Z,1.90
2023-05-11T16:02:37.506Z,2.30
2023-05-11T16:05:04.636Z,2.30
2023-05-11T16:07:31.470Z,2.00
2023-05-11T16:09:58.049Z,1.80
2023-05-11T16:12:24.626Z,2.20
2023-05-11T16:14:51.281Z,1.70
2023-05-11T16:17:18.029Z,1.80
2023-05-11T16:19:44.773Z,2.70
2023-05-11T16:22:11.461Z,2.40
2023-05-11T16:24:39.050Z,2.30
2023-05-11T16:27:05.775Z,2.70
2023-05-11T16:29:32.491Z,2.40
2023-05-11T16:31:59.159Z,2.40
2023-05-11T16:34:26.958Z,2.80
2023-05-11T16:36:53.583Z,2.30
2023-05-11T16:39:20.251Z,2.40
2023-05-11T16:41:46.783Z,1.70
2023-05-11T16:44:13.352Z,2.00
2023-05-11T16:46:39.987Z,1.80
2023-05-11T16:49:06.645Z,2.20
2023-05-11T16:51:34.068Z,1.80
2023-05-11T16:54:00.890Z,2.70
2023-05-11T16:56:27.581Z,1.50
2023-05-11T16:58:54.197Z,2.10
2023-05-11T17:01:20.824Z,2.90
2023-05-11T17:03:47.721Z,2.20
2023-05-11T17:06:18.975Z,2.20
2023-05-11T17:08:46.842Z,2.80
2023-05-11T17:11:13.440Z,2.90
2023-05-11T17:13:40.091Z,1.90
2023-05-11T17:16:07.205Z,2.80
2023-05-11T17:18:33.889Z,3.00
2023-05-11T17:21:00.772Z,3.50
2023-05-11T17:23:27.593Z,2.70
2023-05-11T17:25:54.391Z,2.90
2023-05-11T17:28:22.279Z,3.40
2023-05-11T17:30:52.742Z,5.10
2023-05-11T17:33:19.715Z,6.30
2023-05-11T17:35:46.486Z,11.30
2023-05-11T17:38:13.105Z,12.10
2023-05-11T17:40:39.762Z,7.90
2023-05-11T17:43:08.735Z,6.30
2023-05-11T17:45:35.571Z,4.80
2023-05-11T17:48:02.280Z,4.90
2023-05-11T17:50:29.073Z,4.60
2023-05-11T17:52:55.591Z,4.20
2023-05-11T17:55:22.202Z,4.50
2023-05-11T17:57:51.427Z,4.00
2023-05-11T18:00:18.579Z,4.30
2023-05-11T18:02:51.190Z,5.80
2023-05-11T18:05:18.369Z,7.20
2023-05-11T18:07:44.956Z,6.60
2023-05-11T18:10:12.122Z,7.70
2023-05-11T18:12:38.718Z,7.10
2023-05-11T18:15:05.810Z,6.50
2023-05-11T18:17:32.786Z,5.90
2023-05-11T18:19:59.401Z,5.40
2023-05-11T18:22:25.971Z,5.40
2023-05-11T18:24:52.478Z,5.70
2023-05-11T18:27:19.112Z,5.70
2023-05-11T18:29:45.814Z,5.40
2023-05-11T18:32:12.442Z,5.90
2023-05-11T18:34:42.414Z,8.10
2023-05-11T18:39:36.190Z,6.70
2023-05-11T18:42:04.901Z,6.60
2023-05-11T18:44:32.142Z,6.80
2023-05-11T18:46:59.478Z,7.90
2023-05-11T18:49:26.271Z,7.60
2023-05-11T18:51:53.008Z,10.60
2023-05-11T18:54:19.681Z,10.50
2023-05-11T18:56:46.367Z,10.80
2023-05-11T18:59:12.916Z,12.70
2023-05-11T19:01:47.641Z,13.60
2023-05-11T19:04:17.655Z,12.80
2023-05-11T19:06:44.215Z,13.10
2023-05-11T19:09:10.794Z,12.80
2023-05-11T19:11:37.893Z,11.80
2023-05-11T19:14:04.676Z,12.90
2023-05-11T19:16:32.729Z,13.10
2023-05-11T19:18:59.694Z,13.70
2023-05-11T19:21:26.653Z,11.50
2023-05-11T19:23:53.451Z,10.50
2023-05-11T19:26:20.141Z,10.80
2023-05-11T19:28:46.733Z,9.20
2023-05-11T19:31:13.602Z,9.40
2023-05-11T19:33:40.517Z,9.80
2023-05-11T19:36:07.270Z,9.00
2023-05-11T19:38:35.895Z,8.60
2023-05-11T19:41:03.150Z,8.60
2023-05-11T19:43:29.852Z,9.40
2023-05-11T19:45:56.512Z,9.20
2023-05-11T19:48:23.293Z,9.20
2023-05-11T19:50:49.792Z,7.10
2023-05-11T19:53:16.578Z,7.90
2023-05-11T19:55:45.432Z,8.10
2023-05-11T19:58:13.982Z,7.30
2023-05-11T20:00:43.484Z,8.10
2023-05-11T20:03:10.306Z,8.00
2023-05-11T20:05:37.360Z,8.40
2023-05-11T20:08:06.159Z,7.60
2023-05-11T20:10:33.516Z,7.80
2023-05-11T20:13:03.804Z,7.70
2023-05-11T20:15:31.372Z,8.00
2023-05-11T20:17:58.028Z,6.90
2023-05-11T20:20:24.875Z,7.30
2023-05-11T20:22:52.400Z,7.30
2023-05-11T20:25:19.223Z,6.90
2023-05-11T20:27:46.570Z,7.30
2023-05-11T20:30:13.736Z,6.90
2023-05-11T20:35:28.027Z,6.80
2023-05-11T20:37:55.241Z,6.60
2023-05-11T20:40:22.198Z,7.00
2023-05-11T20:42:49.008Z,6.10
2023-05-11T20:45:15.812Z,6.70
2023-05-11T20:47:42.772Z,6.10
2023-05-11T20:50:10.233Z,5.90
2023-05-11T20:52:37.375Z,5.80
2023-05-11T20:55:04.602Z,6.30
2023-05-11T20:57:31.495Z,6.20
2023-05-11T21:02:27.721Z,5.50
2023-05-11T21:04:54.591Z,5.80
2023-05-11T21:07:23.056Z,5.50
2023-05-11T21:09:49.582Z,5.70
2023-05-11T21:12:16.323Z,5.70
2023-05-11T21:14:42.905Z,5.90
2023-05-11T21:17:09.604Z,6.10
2023-05-11T21:19:36.330Z,5.80
2023-05-11T21:22:03.180Z,5.60
2023-05-11T21:24:29.951Z,6.60
2023-05-11T21:26:56.907Z,6.60
2023-05-11T21:29:23.552Z,6.40
2023-05-11T21:31:50.279Z,6.10
2023-05-11T21:34:17.306Z,6.20
2023-05-11T21:36:45.637Z,5.70
2023-05-11T21:39:15.023Z,6.70
2023-05-11T21:41:42.022Z,6.50
2023-05-11T21:44:08.906Z,6.00
2023-05-11T21:46:35.661Z,6.00
2023-05-11T21:49:02.283Z,6.10
2023-05-11T21:51:28.979Z,6.00
2023-05-11T21:53:55.727Z,5.90
2023-05-11T21:56:23.452Z,6.70
2023-05-11T21:58:50.309Z,6.20
2023-05-11T22:01:17.182Z,5.80
2023-05-11T22:03:44.031Z,5.70
2023-05-11T22:06:11.091Z,6.20
2023-05-11T22:08:37.772Z,6.20
2023-05-11T22:11:04.607Z,5.80
2023-05-11T22:13:31.107Z,5.80
2023-05-11T22:15:57.776Z,5.20
2023-05-11T22:18:24.835Z,5.60
2023-05-11T22:20:51.472Z,5.60
2023-05-11T22:23:18.061Z,5.90
2023-05-11T22:25:44.585Z,5.70
2023-05-11T22:28:11.113Z,5.70
2023-05-11T22:30:37.745Z,5.80
2023-05-11T22:33:04.334Z,6.30
2023-05-11T22:35:31.043Z,6.50
2023-05-11T22:37:57.656Z,6.20
2023-05-11T22:40:24.169Z,5.90
2023-05-11T22:42:50.665Z,6.10
2023-05-11T22:45:17.329Z,6.00
2023-05-11T22:47:44.231Z,6.60
2023-05-11T22:50:12.070Z,6.20
2023-05-11T22:52:38.768Z,5.80
2023-05-11T22:55:05.921Z,5.80
2023-05-11T22:57:32.554Z,6.00
2023-05-11T22:59:59.166Z,6.10
2023-05-11T23:02:25.857Z,6.10
2023-05-11T23:04:53.059Z,6.50
2023-05-11T23:07:19.985Z,5.40
2023-05-11T23:09:46.902Z,5.60
2023-05-11T23:12:13.444Z,6.00
2023-05-11T23:14:39.952Z,5.70
2023-05-11T23:17:06.579Z,5.40
2023-05-11T23:19:33.734Z,5.00
2023-05-11T23:22:00.765Z,5.90
2023-05-11T23:24:28.862Z,6.10
2023-05-11T23:26:55.483Z,5.80
2023-05-11T23:29:22.069Z,5.90
2023-05-11T23:31:48.950Z,5.50
2023-05-11T23:34:15.740Z,4.60
2023-05-11T23:36:42.407Z,5.60
2023-05-11T23:39:09.565Z,5.10
2023-05-11T23:41:36.366Z,5.30
2023-05-11T23:44:03.272Z,4.90
2023-05-11T23:46:29.940Z,5.80
2023-05-11T23:48:56.428Z,5.30
2023-05-11T23:51:23.161Z,5.70
2023-05-11T23:53:49.947Z,4.80
2023-05-11T23:56:16.542Z,5.70
2023-05-11T23:58:45.664Z,5.20
